Time,TemperatureF,DewpointF,PressureIn,WindDirection,WindDirectionDegrees,WindSpeedMPH,WindSpeedGustMPH,Humidity,HourlyPrecipIn,Conditions,Clouds,dailyrainin,SoftwareType,DateUTC
2013-03-03 00:01:00,46.3,25.6,29.78,WSW,253,0.0,0.0,44,0.00,,---,0.00,VWS V14.00,2013-03-03 07:01:00,
2013-03-03 00:06:00,46.6,25.9,29.79,WSW,253,0.0,1.0,44,0.00,,---,0.00,VWS V14.00,2013-03-03 07:06:00,
2013-03-03 00:11:00,46.7,26.0,29.78,West,264,0.0,2.0,44,0.00,,---,0.00,VWS V14.00,2013-03-03 07:11:00,
2013-03-03 00:16:00,46.3,26.1,29.78,West,264,0.0,1.0,45,0.00,,---,0.00,VWS V14.00,2013-03-03 07:16:00,
2013-03-03 00:21:00,46.1,27.0,29.77,West,273,4.0,4.0,47,0.00,,---,0.00,VWS V14.00,2013-03-03 07:21:00,
2013-03-03 00:26:00,45.1,25.6,29.77,WNW,297,5.0,5.0,46,0.00,,---,0.00,VWS V14.00,2013-03-03 07:26:00,
2013-03-03 00:31:00,45.1,26.6,29.76,NW,309,1.0,5.0,48,0.00,,---,0.00,VWS V14.00,2013-03-03 07:31:00,
2013-03-03 00:36:00,44.7,25.7,29.76,WSW,253,0.0,2.0,47,0.00,,---,0.00,VWS V14.00,2013-03-03 07:36:00,
2013-03-03 00:41:00,45.4,25.9,29.76,WSW,254,0.0,2.0,46,0.00,,---,0.00,VWS V14.00,2013-03-03 07:41:00,
2013-03-03 00:46:00,45.5,26.5,29.76,WSW,254,0.0,0.0,47,0.00,,---,0.00,VWS V14.00,2013-03-03 07:46:00,
2013-03-03 00:51:00,44.8,26.3,29.76,WSW,254,0.0,3.0,48,0.00,,---,0.00,VWS V14.00,2013-03-03 07:51:00,
2013-03-03 00:56:00,45.0,26.5,29.75,West,259,0.0,2.0,48,0.00,,---,0.00,VWS V14.00,2013-03-03 07:56:00,
2013-03-03 01:01:00,45.3,26.8,29.75,West,259,0.0,2.0,48,0.00,,---,0.00,VWS V14.00,2013-03-03 08:01:00,
2013-03-03 01:06:00,45.5,27.0,29.75,West,281,0.0,5.0,48,0.00,,---,0.00,VWS V14.00,2013-03-03 08:06:00,
2013-03-03 01:11:00,45.8,26.2,29.74,West,281,2.0,5.0,46,0.00,,---,0.00,VWS V14.00,2013-03-03 08:11:00,
2013-03-03 01:17:00,45.8,26.7,29.74,West,281,0.0,0.0,47,0.00,,---,0.00,VWS V14.00,2013-03-03 08:17:00,
2013-03-03 01:22:00,45.2,26.2,29.74,West,281,2.0,3.0,47,0.00,,---,0.00,VWS V14.00,2013-03-03 08:22:00,
2013-03-03 01:27:00,45.5,25.9,29.73,West,273,5.0,8.0,46,0.00,,---,0.00,VWS V14.00,2013-03-03 08:27:00,
2013-03-03 01:32:00,45.3,26.8,29.72,West,263,0.0,8.0,48,0.00,,---,0.00,VWS V14.00,2013-03-03 08:32:00,
2013-03-03 01:37:00,44.7,25.7,29.73,West,263,0.0,2.0,47,0.00,,---,0.00,VWS V14.00,2013-03-03 08:37:00,
2013-03-03 01:42:00,44.9,26.4,29.72,NNW,345,4.0,7.0,48,0.00,,---,0.00,VWS V14.00,2013-03-03 08:42:00,
2013-03-03 01:47:00,44.9,26.4,29.72,NNW,335,3.0,5.0,48,0.00,,---,0.00,VWS V14.00,2013-03-03 08:47:00,
2013-03-03 01:52:00,45.5,25.4,29.71,NNW,346,0.0,5.0,45,0.00,,---,0.00,VWS V14.00,2013-03-03 08:52:00,
2013-03-03 01:57:00,45.6,25.5,29.71,NNW,346,0.0,0.0,45,0.00,,---,0.00,VWS V14.00,2013-03-03 08:57:00,
2013-03-03 02:02:00,45.7,25.0,29.70,SW,220,4.0,5.0,44,0.00,,---,0.00,VWS V14.00,2013-03-03 09:02:00,
2013-03-03 02:07:00,46.2,26.6,29.70,SW,221,0.0,0.0,46,0.00,,---,0.00,VWS V14.00,2013-03-03 09:07:00,
2013-03-03 02:12:00,45.1,24.0,29.69,WSW,238,4.0,5.0,43,0.00,,---,0.00,VWS V14.00,2013-03-03 09:12:00,
2013-03-03 02:17:00,45.9,24.7,29.69,WSW,250,1.0,4.0,43,0.00,,---,0.00,VWS V14.00,2013-03-03 09:17:00,
2013-03-03 02:23:00,44.9,24.9,29.69,SSW,200,5.0,5.0,45,0.00,,---,0.00,VWS V14.00,2013-03-03 09:23:00,
2013-03-03 02:28:00,45.0,25.0,29.69,WSW,248,5.0,7.0,45,0.00,,---,0.00,VWS V14.00,2013-03-03 09:28:00,
2013-03-03 02:33:00,45.1,25.0,29.68,WSW,247,4.0,7.0,45,0.00,,---,0.00,VWS V14.00,2013-03-03 09:33:00,
2013-03-03 02:38:00,46.0,24.2,29.67,SSW,212,0.0,6.0,42,0.00,,---,0.00,VWS V14.00,2013-03-03 09:38:00,
2013-03-03 02:43:00,46.9,23.9,29.66,SSE,153,7.0,7.0,40,0.00,,---,0.00,VWS V14.00,2013-03-03 09:43:00,
2013-03-03 02:48:00,46.6,23.6,29.66,SSW,194,1.0,8.0,40,0.00,,---,0.00,VWS V14.00,2013-03-03 09:48:00,
2013-03-03 02:53:00,46.6,23.6,29.66,South,184,3.0,10.0,40,0.00,,---,0.00,VWS V14.00,2013-03-03 09:53:00,
2013-03-03 02:58:00,46.4,24.0,29.65,SE,130,0.0,6.0,41,0.00,,---,0.00,VWS V14.00,2013-03-03 09:58:00,
2013-03-03 03:03:00,47.7,21.4,29.64,NNE,30,2.0,11.0,35,0.00,,---,0.00,VWS V14.00,2013-03-03 10:03:00,
2013-03-03 03:08:00,51.1,20.8,29.63,NW,321,10.0,15.0,30,0.00,,---,0.00,VWS V14.00,2013-03-03 10:08:00,
2013-03-03 03:13:00,53.1,20.0,29.64,NNE,18,12.0,27.0,27,0.00,,---,0.00,VWS V14.00,2013-03-03 10:13:00,
2013-03-03 03:19:00,53.8,19.7,29.64,ENE,76,7.0,19.0,26,0.00,,---,0.00,VWS V14.00,2013-03-03 10:19:00,
2013-03-03 03:24:00,53.9,19.8,29.63,North,355,8.0,19.0,26,0.00,,---,0.00,VWS V14.00,2013-03-03 10:24:00,
2013-03-03 03:29:00,54.1,20.0,29.63,NW,312,10.0,25.0,26,0.00,,---,0.00,VWS V14.00,2013-03-03 10:29:00,
2013-03-03 03:34:00,54.0,19.9,29.63,West,259,6.0,25.0,26,0.00,,---,0.00,VWS V14.00,2013-03-03 10:34:00,
2013-03-03 03:39:00,53.8,19.7,29.63,NNE,32,4.0,17.0,26,0.00,,---,0.00,VWS V14.00,2013-03-03 10:39:00,
2013-03-03 03:44:00,54.0,19.0,29.63,North,360,25.0,25.0,25,0.00,,---,0.00,VWS V14.00,2013-03-03 10:44:00,
2013-03-03 03:49:00,54.2,19.2,29.63,East,87,6.0,13.0,25,0.00,,---,0.00,VWS V14.00,2013-03-03 10:49:00,
2013-03-03 03:54:00,54.3,19.2,29.63,SE,144,6.0,21.0,25,0.00,,---,0.00,VWS V14.00,2013-03-03 10:54:00,
2013-03-03 03:59:00,54.4,19.3,29.64,NW,326,8.0,15.0,25,0.00,,---,0.00,VWS V14.00,2013-03-03 10:59:00,
2013-03-03 04:04:00,54.4,19.3,29.63,ENE,63,8.0,19.0,25,0.00,,---,0.00,VWS V14.00,2013-03-03 11:04:00,
2013-03-03 04:10:00,54.3,19.2,29.63,North,5,10.0,18.0,25,0.00,,---,0.00,VWS V14.00,2013-03-03 11:10:00,
2013-03-03 04:15:00,54.2,19.2,29.62,North,9,13.0,20.0,25,0.00,,---,0.00,VWS V14.00,2013-03-03 11:15:00,
2013-03-03 04:20:00,54.2,19.2,29.62,NW,313,10.0,27.0,25,0.00,,---,0.00,VWS V14.00,2013-03-03 11:20:00,
2013-03-03 04:25:00,53.9,18.9,29.61,NNW,345,7.0,27.0,25,0.00,,---,0.00,VWS V14.00,2013-03-03 11:25:00,
2013-03-03 04:30:00,53.7,19.6,29.62,SSW,210,2.0,14.0,26,0.00,,---,0.00,VWS V14.00,2013-03-03 11:30:00,
2013-03-03 04:35:00,53.8,18.8,29.62,NE,35,12.0,27.0,25,0.00,,---,0.00,VWS V14.00,2013-03-03 11:35:00,
2013-03-03 04:40:00,53.7,18.7,29.60,North,5,10.0,18.0,25,0.00,,---,0.00,VWS V14.00,2013-03-03 11:40:00,
2013-03-03 04:45:00,53.6,19.6,29.60,North,9,18.0,19.0,26,0.00,,---,0.00,VWS V14.00,2013-03-03 11:45:00,
2013-03-03 04:50:00,53.2,20.1,29.60,NNW,348,23.0,23.0,27,0.00,,---,0.00,VWS V14.00,2013-03-03 11:50:00,
2013-03-03 04:55:00,53.0,19.9,29.61,NNE,19,4.0,6.0,27,0.00,,---,0.00,VWS V14.00,2013-03-03 11:55:00,
2013-03-03 05:00:00,53.1,19.1,29.61,NE,39,3.0,25.0,26,0.00,,---,0.00,VWS V14.00,2013-03-03 12:00:00,
2013-03-03 05:06:00,52.9,19.9,29.60,NNE,12,9.0,17.0,27,0.00,,---,0.00,VWS V14.00,2013-03-03 12:06:00,
2013-03-03 05:11:00,52.8,18.9,29.60,NE,35,14.0,22.0,26,0.00,,---,0.00,VWS V14.00,2013-03-03 12:11:00,
2013-03-03 05:16:00,53.0,19.9,29.60,West,261,12.0,20.0,27,0.00,,---,0.00,VWS V14.00,2013-03-03 12:16:00,
2013-03-03 05:21:00,52.6,19.6,29.60,North,355,2.0,20.0,27,0.00,,---,0.00,VWS V14.00,2013-03-03 12:21:00,
2013-03-03 05:26:00,52.7,19.7,29.59,NNE,17,6.0,13.0,27,0.00,,---,0.00,VWS V14.00,2013-03-03 12:26:00,
2013-03-03 05:31:00,52.8,19.8,29.59,WNW,300,0.0,23.0,27,0.00,,---,0.00,VWS V14.00,2013-03-03 12:31:00,
2013-03-03 05:36:00,52.8,19.8,29.59,NNE,19,18.0,18.0,27,0.00,,---,0.00,VWS V14.00,2013-03-03 12:36:00,
2013-03-03 05:41:00,52.6,19.6,29.59,NE,41,9.0,24.0,27,0.00,,---,0.00,VWS V14.00,2013-03-03 12:41:00,
2013-03-03 05:46:00,52.8,19.8,29.58,NE,51,11.0,17.0,27,0.00,,---,0.00,VWS V14.00,2013-03-03 12:46:00,
2013-03-03 05:51:00,52.8,19.8,29.58,NE,38,13.0,22.0,27,0.00,,---,0.00,VWS V14.00,2013-03-03 12:51:00,
2013-03-03 05:56:00,52.6,19.6,29.58,NE,38,8.0,13.0,27,0.00,,---,0.00,VWS V14.00,2013-03-03 12:56:00,
2013-03-03 06:01:00,52.6,19.6,29.58,NNE,12,27.0,27.0,27,0.00,,---,0.00,VWS V14.00,2013-03-03 13:01:00,
2013-03-03 06:06:00,52.8,19.8,29.58,NNE,13,15.0,22.0,27,0.00,,---,0.00,VWS V14.00,2013-03-03 13:06:00,
2013-03-03 06:11:00,52.7,19.7,29.58,NNE,22,11.0,22.0,27,0.00,,---,0.00,VWS V14.00,2013-03-03 13:11:00,
2013-03-03 06:17:00,52.1,20.0,29.56,NNW,332,26.0,26.0,28,0.00,,---,0.00,VWS V14.00,2013-03-03 13:17:00,
2013-03-03 06:22:00,52.3,20.2,29.57,NNE,16,17.0,35.0,28,0.00,,---,0.00,VWS V14.00,2013-03-03 13:22:00,
2013-03-03 06:27:00,51.7,19.7,29.57,North,9,14.0,21.0,28,0.00,,---,0.00,VWS V14.00,2013-03-03 13:27:00,
2013-03-03 06:32:00,51.8,19.8,29.58,NNE,23,14.0,27.0,28,0.00,,---,0.00,VWS V14.00,2013-03-03 13:32:00,
2013-03-03 06:37:00,51.4,20.2,29.57,NNE,18,12.0,18.0,29,0.00,,---,0.00,VWS V14.00,2013-03-03 13:37:00,
2013-03-03 06:42:00,51.1,20.0,29.57,North,355,17.0,20.0,29,0.00,,---,0.00,VWS V14.00,2013-03-03 13:42:00,
2013-03-03 06:47:00,51.3,20.1,29.56,North,5,20.0,23.0,29,0.00,,---,0.00,VWS V14.00,2013-03-03 13:47:00,
2013-03-03 06:52:00,51.3,20.1,29.57,North,5,20.0,26.0,29,0.00,,---,0.00,VWS V14.00,2013-03-03 13:52:00,
2013-03-03 06:57:00,51.5,20.3,29.57,North,355,13.0,18.0,29,0.00,,---,0.00,VWS V14.00,2013-03-03 13:57:00,
2013-03-03 07:02:00,51.7,20.5,29.56,NNE,16,10.0,26.0,29,0.00,,---,0.00,VWS V14.00,2013-03-03 14:02:00,
2013-03-03 07:07:00,51.8,20.6,29.56,North,360,16.0,25.0,29,0.00,,---,0.00,VWS V14.00,2013-03-03 14:07:00,
2013-03-03 07:12:00,52.0,20.8,29.56,NNE,15,15.0,31.0,29,0.00,,---,0.00,VWS V14.00,2013-03-03 14:12:00,
2013-03-03 07:17:00,52.1,20.0,29.55,North,355,13.0,28.0,28,0.00,,---,0.00,VWS V14.00,2013-03-03 14:17:00,
2013-03-03 07:22:00,52.4,20.3,29.56,North,360,18.0,28.0,28,0.00,,---,0.00,VWS V14.00,2013-03-03 14:22:00,
2013-03-03 07:27:00,52.3,21.0,29.55,NNE,12,11.0,29.0,29,0.00,,---,0.00,VWS V14.00,2013-03-03 14:27:00,
2013-03-03 07:32:00,52.3,20.2,29.55,North,5,16.0,29.0,28,0.00,,---,0.00,VWS V14.00,2013-03-03 14:32:00,
2013-03-03 07:38:00,53.0,20.8,29.55,North,355,13.0,22.0,28,0.00,,---,0.00,VWS V14.00,2013-03-03 14:38:00,
2013-03-03 07:43:00,53.6,20.5,29.54,NNW,337,21.0,29.0,27,0.00,,---,0.00,VWS V14.00,2013-03-03 14:43:00,
2013-03-03 07:48:00,53.2,21.0,29.55,NNE,19,8.0,34.0,28,0.00,,---,0.00,VWS V14.00,2013-03-03 14:48:00,
2013-03-03 07:53:00,52.7,20.5,29.55,North,5,13.0,34.0,28,0.00,,---,0.00,VWS V14.00,2013-03-03 14:53:00,
2013-03-03 07:58:00,52.7,20.5,29.55,NNE,26,14.0,24.0,28,0.00,,---,0.00,VWS V14.00,2013-03-03 14:58:00,
2013-03-03 08:03:00,52.7,20.5,29.54,North,11,16.0,29.0,28,0.00,,---,0.00,VWS V14.00,2013-03-03 15:03:00,
2013-03-03 08:08:00,52.7,20.5,29.55,NE,36,17.0,21.0,28,0.00,,---,0.00,VWS V14.00,2013-03-03 15:08:00,
2013-03-03 08:13:00,53.0,20.8,29.56,SSE,164,4.0,24.0,28,0.00,,---,0.00,VWS V14.00,2013-03-03 15:13:00,
2013-03-03 08:18:00,53.0,20.8,29.53,NE,52,17.0,21.0,28,0.00,,---,0.00,VWS V14.00,2013-03-03 15:18:00,
2013-03-03 08:23:00,53.0,20.8,29.54,NNW,342,17.0,26.0,28,0.00,,---,0.00,VWS V14.00,2013-03-03 15:23:00,
2013-03-03 08:28:00,52.9,20.7,29.54,NNE,20,15.0,28.0,28,0.00,,---,0.00,VWS V14.00,2013-03-03 15:28:00,
2013-03-03 08:33:00,53.0,20.8,29.54,North,9,16.0,28.0,28,0.00,,---,0.00,VWS V14.00,2013-03-03 15:33:00,
2013-03-03 08:38:00,53.0,20.8,29.53,NNE,19,19.0,24.0,28,0.00,,---,0.00,VWS V14.00,2013-03-03 15:38:00,
2013-03-03 08:43:00,53.1,20.9,29.52,NNE,33,18.0,28.0,28,0.00,,---,0.00,VWS V14.00,2013-03-03 15:43:00,
2013-03-03 08:48:00,53.4,21.1,29.52,NNE,26,18.0,30.0,28,0.00,,---,0.00,VWS V14.00,2013-03-03 15:48:00,
2013-03-03 08:53:00,53.7,20.5,29.53,West,277,5.0,30.0,27,0.00,,---,0.00,VWS V14.00,2013-03-03 15:53:00,
2013-03-03 08:58:00,53.8,20.6,29.52,ESE,123,11.0,12.0,27,0.00,,---,0.00,VWS V14.00,2013-03-03 15:58:00,
2013-03-03 09:04:00,54.1,20.9,29.52,NE,44,4.0,20.0,27,0.00,,---,0.00,VWS V14.00,2013-03-03 16:04:00,
2013-03-03 09:09:00,54.3,21.0,29.51,ENE,78,11.0,15.0,27,0.00,,---,0.00,VWS V14.00,2013-03-03 16:09:00,
2013-03-03 09:14:00,54.5,21.2,29.52,North,355,4.0,18.0,27,0.00,,---,0.00,VWS V14.00,2013-03-03 16:14:00,
2013-03-03 09:19:00,54.4,22.8,29.52,SE,125,9.0,13.0,29,0.00,,---,0.00,VWS V14.00,2013-03-03 16:19:00,
2013-03-03 09:24:00,54.1,21.7,29.52,East,83,6.0,13.0,28,0.00,,---,0.00,VWS V14.00,2013-03-03 16:24:00,
2013-03-03 09:29:00,54.5,22.1,29.52,NW,326,4.0,16.0,28,0.00,,---,0.00,VWS V14.00,2013-03-03 16:29:00,
2013-03-03 09:34:00,53.6,22.9,29.53,SSE,157,6.0,16.0,30,0.00,,---,0.00,VWS V14.00,2013-03-03 16:34:00,
2013-03-03 09:39:00,51.2,23.8,29.52,South,182,6.0,8.0,34,0.00,,---,0.00,VWS V14.00,2013-03-03 16:39:00,
2013-03-03 09:44:00,49.9,24.7,29.52,SSW,195,5.0,10.0,37,0.00,,---,0.00,VWS V14.00,2013-03-03 16:44:00,
2013-03-03 09:49:00,50.9,25.6,29.52,South,175,10.0,13.0,37,0.00,,---,0.00,VWS V14.00,2013-03-03 16:49:00,
2013-03-03 09:54:00,50.7,24.1,29.52,South,183,6.0,13.0,35,0.00,,---,0.00,VWS V14.00,2013-03-03 16:54:00,
2013-03-03 09:59:00,51.1,24.4,29.51,South,184,5.0,10.0,35,0.00,,---,0.00,VWS V14.00,2013-03-03 16:59:00,
2013-03-03 10:04:00,51.3,24.6,29.51,SSE,156,7.0,10.0,35,0.00,,---,0.00,VWS V14.00,2013-03-03 17:04:00,
2013-03-03 10:09:00,51.3,25.3,29.50,SSE,147,8.0,11.0,36,0.00,,---,0.00,VWS V14.00,2013-03-03 17:09:00,
2013-03-03 10:14:00,50.9,24.2,29.50,SSE,167,10.0,15.0,35,0.00,,---,0.00,VWS V14.00,2013-03-03 17:14:00,
2013-03-03 10:20:00,50.9,24.9,29.51,South,184,11.0,15.0,36,0.00,,---,0.00,VWS V14.00,2013-03-03 17:20:00,
2013-03-03 10:25:00,51.0,25.0,29.50,SSE,162,9.0,15.0,36,0.00,,---,0.00,VWS V14.00,2013-03-03 17:25:00,
2013-03-03 10:30:00,51.3,24.6,29.50,South,190,6.0,11.0,35,0.00,,---,0.00,VWS V14.00,2013-03-03 17:30:00,
2013-03-03 10:35:00,51.6,25.5,29.50,South,181,9.0,11.0,36,0.00,,---,0.00,VWS V14.00,2013-03-03 17:35:00,
2013-03-03 10:40:00,52.3,24.8,29.50,South,171,8.0,10.0,34,0.00,,---,0.00,VWS V14.00,2013-03-03 17:40:00,
2013-03-03 10:45:00,52.7,25.1,29.49,SSE,163,6.0,11.0,34,0.00,,---,0.00,VWS V14.00,2013-03-03 17:45:00,
2013-03-03 10:50:00,53.3,24.2,29.49,SSW,209,0.0,8.0,32,0.00,,---,0.00,VWS V14.00,2013-03-03 17:50:00,
2013-03-03 10:55:00,54.4,23.6,29.49,SSE,161,5.0,10.0,30,0.00,,---,0.00,VWS V14.00,2013-03-03 17:55:00,
2013-03-03 11:00:00,54.4,23.6,29.49,South,173,6.0,8.0,30,0.00,,---,0.00,VWS V14.00,2013-03-03 18:00:00,
2013-03-03 11:05:00,54.2,24.2,29.48,SSE,157,8.0,9.0,31,0.00,,---,0.00,VWS V14.00,2013-03-03 18:05:00,
2013-03-03 11:10:00,54.4,25.2,29.48,SSE,154,11.0,13.0,32,0.00,,---,0.00,VWS V14.00,2013-03-03 18:10:00,
2013-03-03 11:15:00,54.1,24.9,29.47,SSE,168,9.0,10.0,32,0.00,,---,0.00,VWS V14.00,2013-03-03 18:15:00,
2013-03-03 11:20:00,53.9,24.7,29.47,SE,146,9.0,15.0,32,0.00,,---,0.00,VWS V14.00,2013-03-03 18:20:00,
2013-03-03 11:25:00,54.5,25.3,29.47,South,169,7.0,10.0,32,0.00,,---,0.00,VWS V14.00,2013-03-03 18:25:00,
2013-03-03 11:31:00,55.1,25.0,29.47,SSE,161,6.0,11.0,31,0.00,,---,0.00,VWS V14.00,2013-03-03 18:31:00,
2013-03-03 11:36:00,56.0,25.0,29.46,South,175,6.0,7.0,30,0.00,,---,0.00,VWS V14.00,2013-03-03 18:36:00,
2013-03-03 11:41:00,56.5,24.6,29.46,SSE,165,7.0,11.0,29,0.00,,---,0.00,VWS V14.00,2013-03-03 18:41:00,
2013-03-03 11:46:00,55.7,24.8,29.46,ESE,117,4.0,7.0,30,0.00,,---,0.00,VWS V14.00,2013-03-03 18:46:00,
2013-03-03 11:51:00,55.6,25.5,29.45,ESE,113,4.0,8.0,31,0.00,,---,0.00,VWS V14.00,2013-03-03 18:51:00,
2013-03-03 11:56:00,56.0,25.8,29.45,ESE,109,7.0,9.0,31,0.00,,---,0.00,VWS V14.00,2013-03-03 18:56:00,
2013-03-03 12:01:00,56.0,24.2,29.44,SE,142,1.0,9.0,29,0.00,,---,0.00,VWS V14.00,2013-03-03 19:01:00,
2013-03-03 12:06:00,55.8,24.9,29.44,SSE,164,4.0,6.0,30,0.00,,---,0.00,VWS V14.00,2013-03-03 19:06:00,
2013-03-03 12:11:00,55.6,23.9,29.43,East,95,0.0,9.0,29,0.00,,---,0.00,VWS V14.00,2013-03-03 19:11:00,
2013-03-03 12:16:00,55.6,23.0,29.42,ESE,115,1.0,5.0,28,0.00,,---,0.00,VWS V14.00,2013-03-03 19:16:00,
2013-03-03 12:21:00,55.9,22.4,29.42,SE,141,1.0,12.0,27,0.00,,---,0.00,VWS V14.00,2013-03-03 19:21:00,
2013-03-03 12:26:00,55.8,23.2,29.42,ESE,119,2.0,6.0,28,0.00,,---,0.00,VWS V14.00,2013-03-03 19:26:00,
2013-03-03 12:31:00,55.3,24.4,29.41,ESE,113,0.0,7.0,30,0.00,,---,0.00,VWS V14.00,2013-03-03 19:31:00,
2013-03-03 12:36:00,54.9,25.6,29.41,ESE,108,0.0,6.0,32,0.00,,---,0.00,VWS V14.00,2013-03-03 19:36:00,
2013-03-03 12:42:00,54.4,25.2,29.41,ESE,113,0.0,7.0,32,0.00,,---,0.00,VWS V14.00,2013-03-03 19:42:00,
2013-03-03 12:47:00,54.3,26.5,29.41,NE,51,5.0,6.0,34,0.00,,---,0.00,VWS V14.00,2013-03-03 19:47:00,
2013-03-03 12:52:00,54.2,27.2,29.40,ENE,57,2.0,6.0,35,0.00,,---,0.00,VWS V14.00,2013-03-03 19:52:00,
2013-03-03 12:57:00,54.4,27.3,29.40,NE,40,4.0,7.0,35,0.00,,---,0.00,VWS V14.00,2013-03-03 19:57:00,
2013-03-03 13:02:00,54.3,25.1,29.39,NE,46,4.0,8.0,32,0.00,,---,0.00,VWS V14.00,2013-03-03 20:02:00,
2013-03-03 13:07:00,54.0,28.3,29.39,ENE,65,5.0,5.0,37,0.00,,---,0.00,VWS V14.00,2013-03-03 20:07:00,
2013-03-03 13:12:00,53.9,27.6,29.39,NNE,32,5.0,8.0,36,0.00,,---,0.00,VWS V14.00,2013-03-03 20:12:00,
2013-03-03 13:17:00,54.2,26.5,29.39,NE,34,5.0,8.0,34,0.00,,---,0.00,VWS V14.00,2013-03-03 20:17:00,
2013-03-03 13:22:00,54.6,26.1,29.39,NE,36,0.0,8.0,33,0.00,,---,0.00,VWS V14.00,2013-03-03 20:22:00,
2013-03-03 13:27:00,54.7,26.9,29.39,NE,43,1.0,4.0,34,0.00,,---,0.00,VWS V14.00,2013-03-03 20:27:00,
2013-03-03 13:32:00,54.9,26.4,29.38,East,79,1.0,6.0,33,0.00,,---,0.00,VWS V14.00,2013-03-03 20:32:00,
2013-03-03 13:37:00,55.0,27.2,29.38,ESE,115,1.0,5.0,34,0.00,,---,0.00,VWS V14.00,2013-03-03 20:37:00,
2013-03-03 13:42:00,55.4,28.2,29.37,East,101,6.0,7.0,35,0.00,,---,0.00,VWS V14.00,2013-03-03 20:42:00,
2013-03-03 13:48:00,55.4,26.8,29.37,East,80,2.0,8.0,33,0.00,,---,0.00,VWS V14.00,2013-03-03 20:48:00,
2013-03-03 13:53:00,55.1,26.5,29.37,ENE,57,2.0,8.0,33,0.00,,---,0.00,VWS V14.00,2013-03-03 20:53:00,
2013-03-03 13:58:00,55.1,27.3,29.37,ENE,72,0.0,5.0,34,0.00,,---,0.00,VWS V14.00,2013-03-03 20:58:00,
2013-03-03 14:03:00,55.4,27.5,29.37,ENE,75,0.0,5.0,34,0.00,,---,0.00,VWS V14.00,2013-03-03 21:03:00,
2013-03-03 14:08:00,55.7,27.1,29.37,ENE,59,4.0,8.0,33,0.00,,---,0.00,VWS V14.00,2013-03-03 21:08:00,
2013-03-03 14:13:00,55.7,27.8,29.37,ENE,67,7.0,8.0,34,0.00,,---,0.00,VWS V14.00,2013-03-03 21:13:00,
2013-03-03 14:18:00,55.3,27.4,29.37,ENE,75,3.0,7.0,34,0.00,,---,0.00,VWS V14.00,2013-03-03 21:18:00,
2013-03-03 14:23:00,55.1,27.3,29.37,ESE,109,0.0,7.0,34,0.00,,---,0.00,VWS V14.00,2013-03-03 21:23:00,
2013-03-03 14:28:00,55.3,27.4,29.36,East,96,1.0,4.0,34,0.00,,---,0.00,VWS V14.00,2013-03-03 21:28:00,
2013-03-03 14:33:00,55.4,26.8,29.37,ESE,111,0.0,5.0,33,0.00,,---,0.00,VWS V14.00,2013-03-03 21:33:00,
2013-03-03 14:38:00,55.9,27.2,29.36,ESE,112,0.0,2.0,33,0.00,,---,0.00,VWS V14.00,2013-03-03 21:38:00,
2013-03-03 14:43:00,55.9,26.5,29.36,SE,137,0.0,6.0,32,0.00,,---,0.00,VWS V14.00,2013-03-03 21:43:00,
2013-03-03 14:49:00,56.3,25.3,29.36,East,92,0.0,4.0,30,0.00,,---,0.00,VWS V14.00,2013-03-03 21:49:00,
2013-03-03 14:54:00,57.2,23.5,29.36,WNW,297,2.0,6.0,27,0.00,,---,0.00,VWS V14.00,2013-03-03 21:54:00,
2013-03-03 14:59:00,57.7,24.0,29.36,NNW,333,0.0,6.0,27,0.00,,---,0.00,VWS V14.00,2013-03-03 21:59:00,
2013-03-03 15:04:00,58.2,22.6,29.36,East,92,2.0,13.0,25,0.00,,---,0.00,VWS V14.00,2013-03-03 22:04:00,
2013-03-03 15:09:00,58.4,22.7,29.37,NE,54,0.0,12.0,25,0.00,,---,0.00,VWS V14.00,2013-03-03 22:09:00,
2013-03-03 15:14:00,58.8,23.1,29.37,NNE,25,6.0,12.0,25,0.00,,---,0.00,VWS V14.00,2013-03-03 22:14:00,
2013-03-03 15:19:00,59.3,24.4,29.37,NNE,31,7.0,8.0,26,0.00,,---,0.00,VWS V14.00,2013-03-03 22:19:00,
2013-03-03 15:24:00,60.0,24.1,29.37,ENE,65,5.0,8.0,25,0.00,,---,0.00,VWS V14.00,2013-03-03 22:24:00,
2013-03-03 15:29:00,60.6,22.6,29.37,SSE,158,8.0,10.0,23,0.00,,---,0.00,VWS V14.00,2013-03-03 22:29:00,
2013-03-03 15:34:00,59.9,22.0,29.37,South,186,0.0,13.0,23,0.00,,---,0.00,VWS V14.00,2013-03-03 22:34:00,
2013-03-03 15:39:00,60.2,22.3,29.37,SW,217,2.0,2.0,23,0.00,,---,0.00,VWS V14.00,2013-03-03 22:39:00,
2013-03-03 15:44:00,60.5,22.5,29.37,North,5,7.0,8.0,23,0.00,,---,0.00,VWS V14.00,2013-03-03 22:44:00,
2013-03-03 15:49:00,59.8,22.0,29.37,NNW,333,1.0,18.0,23,0.00,,---,0.00,VWS V14.00,2013-03-03 22:49:00,
2013-03-03 15:54:00,59.2,22.5,29.37,North,5,7.0,18.0,24,0.00,,---,0.00,VWS V14.00,2013-03-03 22:54:00,
2013-03-03 16:00:00,58.7,23.0,29.37,ENE,61,0.0,7.0,25,0.00,,---,0.00,VWS V14.00,2013-03-03 23:00:00,
2013-03-03 16:05:00,58.1,22.5,29.37,South,173,2.0,9.0,25,0.00,,---,0.00,VWS V14.00,2013-03-03 23:05:00,
2013-03-03 16:10:00,57.7,23.1,29.36,SSE,166,2.0,6.0,26,0.00,,---,0.00,VWS V14.00,2013-03-03 23:10:00,
2013-03-03 16:15:00,57.5,22.0,29.36,South,188,3.0,8.0,25,0.00,,---,0.00,VWS V14.00,2013-03-03 23:15:00,
2013-03-03 16:20:00,57.2,22.6,29.36,SE,143,6.0,6.0,26,0.00,,---,0.00,VWS V14.00,2013-03-03 23:20:00,
2013-03-03 16:25:00,57.0,24.2,29.35,SE,146,4.0,8.0,28,0.00,,---,0.00,VWS V14.00,2013-03-03 23:25:00,
2013-03-03 16:30:00,56.9,23.3,29.35,South,177,0.0,8.0,27,0.00,,---,0.00,VWS V14.00,2013-03-03 23:30:00,
2013-03-03 16:35:00,56.1,22.6,29.35,South,180,6.0,17.0,27,0.00,,---,0.00,VWS V14.00,2013-03-03 23:35:00,
2013-03-03 16:40:00,55.5,23.0,29.35,SSE,163,4.0,14.0,28,0.00,,---,0.00,VWS V14.00,2013-03-03 23:40:00,
2013-03-03 16:45:00,55.2,23.5,29.35,South,173,6.0,18.0,29,0.00,,---,0.00,VWS V14.00,2013-03-03 23:45:00,
2013-03-03 16:50:00,54.9,23.3,29.36,SSE,148,12.0,18.0,29,0.00,,---,0.00,VWS V14.00,2013-03-03 23:50:00,
2013-03-03 16:55:00,54.7,23.1,29.36,SE,142,5.0,5.0,29,0.00,,---,0.00,VWS V14.00,2013-03-03 23:55:00,
2013-03-03 17:00:00,54.7,23.1,29.37,ENE,65,3.0,6.0,29,0.00,,---,0.00,VWS V14.00,2013-03-04 00:00:00,
2013-03-03 17:05:00,54.4,23.6,29.36,ENE,69,0.0,1.0,30,0.00,,---,0.00,VWS V14.00,2013-03-04 00:05:00,
2013-03-03 17:10:00,54.1,23.4,29.37,ESE,115,8.0,8.0,30,0.00,,---,0.00,VWS V14.00,2013-03-04 00:10:00,
2013-03-03 17:15:00,54.0,22.5,29.37,NW,304,0.0,0.0,29,0.00,,---,0.00,VWS V14.00,2013-03-04 00:15:00,
2013-03-03 17:20:00,53.7,23.0,29.37,SSE,147,0.0,9.0,30,0.00,,---,0.00,VWS V14.00,2013-03-04 00:20:00,
2013-03-03 17:26:00,53.4,22.8,29.37,SSE,150,0.0,0.0,30,0.00,,---,0.00,VWS V14.00,2013-03-04 00:26:00,
2013-03-03 17:31:00,53.3,21.9,29.37,North,355,4.0,15.0,29,0.00,,---,0.00,VWS V14.00,2013-03-04 00:31:00,
2013-03-03 17:36:00,53.6,22.1,29.37,ESE,115,18.0,18.0,29,0.00,,---,0.00,VWS V14.00,2013-03-04 00:36:00,
2013-03-03 17:41:00,53.6,22.9,29.37,SSW,194,0.0,27.0,30,0.00,,---,0.00,VWS V14.00,2013-03-04 00:41:00,
2013-03-03 17:46:00,53.3,22.7,29.38,South,189,3.0,6.0,30,0.00,,---,0.00,VWS V14.00,2013-03-04 00:46:00,
2013-03-03 17:51:00,53.1,22.5,29.38,South,186,9.0,12.0,30,0.00,,---,0.00,VWS V14.00,2013-03-04 00:51:00,
2013-03-03 17:56:00,53.3,22.7,29.38,West,281,2.0,8.0,30,0.00,,---,0.00,VWS V14.00,2013-03-04 00:56:00,
2013-03-03 18:01:00,53.3,22.7,29.39,WSW,255,1.0,8.0,30,0.00,,---,0.00,VWS V14.00,2013-03-04 01:01:00,
2013-03-03 18:06:00,53.2,22.6,29.38,NNE,13,4.0,5.0,30,0.00,,---,0.00,VWS V14.00,2013-03-04 01:06:00,
2013-03-03 18:11:00,52.6,22.9,29.38,WSW,244,5.0,20.0,31,0.00,,---,0.00,VWS V14.00,2013-03-04 01:11:00,
2013-03-03 18:16:00,52.4,23.4,29.39,NNW,340,0.0,5.0,32,0.00,,---,0.00,VWS V14.00,2013-03-04 01:16:00,
2013-03-03 18:21:00,51.9,23.7,29.39,North,9,4.0,5.0,33,0.00,,---,0.00,VWS V14.00,2013-03-04 01:21:00,
2013-03-03 18:26:00,51.3,23.2,29.38,SE,141,5.0,7.0,33,0.00,,---,0.00,VWS V14.00,2013-03-04 01:26:00,
2013-03-03 18:31:00,51.8,23.6,29.38,ESE,104,4.0,29.0,33,0.00,,---,0.00,VWS V14.00,2013-03-04 01:31:00,
2013-03-03 18:36:00,52.0,23.8,29.38,ESE,112,4.0,6.0,33,0.00,,---,0.00,VWS V14.00,2013-03-04 01:36:00,
2013-03-03 18:41:00,52.1,23.9,29.38,SSW,196,0.0,17.0,33,0.00,,---,0.00,VWS V14.00,2013-03-04 01:41:00,
2013-03-03 18:47:00,52.1,23.9,29.38,SSE,165,12.0,21.0,33,0.00,,---,0.00,VWS V14.00,2013-03-04 01:47:00,
2013-03-03 18:52:00,52.1,23.2,29.37,South,171,7.0,21.0,32,0.00,,---,0.00,VWS V14.00,2013-03-04 01:52:00,
2013-03-03 18:57:00,51.5,24.1,29.38,SSW,200,5.0,7.0,34,0.00,,---,0.00,VWS V14.00,2013-03-04 01:57:00,
2013-03-03 19:02:00,50.4,24.5,29.38,NE,53,10.0,13.0,36,0.00,,---,0.00,VWS V14.00,2013-03-04 02:02:00,
2013-03-03 19:07:00,50.5,23.9,29.38,SE,146,2.0,6.0,35,0.00,,---,0.00,VWS V14.00,2013-03-04 02:07:00,
2013-03-03 19:12:00,50.1,24.2,29.39,NNE,13,3.0,6.0,36,0.00,,---,0.00,VWS V14.00,2013-03-04 02:12:00,
2013-03-03 19:17:00,49.2,24.1,29.39,NNE,13,0.0,3.0,37,0.00,,---,0.00,VWS V14.00,2013-03-04 02:17:00,
2013-03-03 19:22:00,48.7,24.2,29.40,NNW,334,5.0,5.0,38,0.00,,---,0.00,VWS V14.00,2013-03-04 02:22:00,
2013-03-03 19:27:00,48.6,24.2,29.39,North,355,3.0,3.0,38,0.00,,---,0.00,VWS V14.00,2013-03-04 02:27:00,
2013-03-03 19:32:00,49.2,24.7,29.40,NNW,341,5.0,11.0,38,0.00,,---,0.00,VWS V14.00,2013-03-04 02:32:00,
2013-03-03 19:37:00,49.3,24.8,29.39,ENE,63,0.0,6.0,38,0.00,,---,0.00,VWS V14.00,2013-03-04 02:37:00,
2013-03-03 19:42:00,48.7,24.9,29.39,NW,318,0.0,9.0,39,0.00,,---,0.00,VWS V14.00,2013-03-04 02:42:00,
2013-03-03 19:48:00,49.0,25.1,29.38,NNE,29,0.0,4.0,39,0.00,,---,0.00,VWS V14.00,2013-03-04 02:48:00,
2013-03-03 19:53:00,48.5,25.3,29.39,SW,221,1.0,7.0,40,0.00,,---,0.00,VWS V14.00,2013-03-04 02:53:00,
2013-03-03 19:58:00,48.4,25.2,29.38,ENE,65,0.0,4.0,40,0.00,,---,0.00,VWS V14.00,2013-03-04 02:58:00,
2013-03-03 20:03:00,48.3,25.7,29.38,NE,46,4.0,8.0,41,0.00,,---,0.00,VWS V14.00,2013-03-04 03:03:00,
2013-03-03 20:08:00,48.9,25.7,29.37,North,355,0.0,10.0,40,0.00,,---,0.00,VWS V14.00,2013-03-04 03:08:00,
2013-03-03 20:13:00,48.5,25.9,29.36,NNW,340,8.0,12.0,41,0.00,,---,0.00,VWS V14.00,2013-03-04 03:13:00,
2013-03-03 20:18:00,48.6,25.4,29.36,North,355,0.0,11.0,40,0.00,,---,0.00,VWS V14.00,2013-03-04 03:18:00,
2013-03-03 20:23:00,48.4,25.2,29.36,North,9,5.0,14.0,40,0.00,,---,0.00,VWS V14.00,2013-03-04 03:23:00,
2013-03-03 20:28:00,49.1,25.2,29.36,NNW,347,4.0,8.0,39,0.00,,---,0.00,VWS V14.00,2013-03-04 03:28:00,
2013-03-03 20:33:00,49.0,25.1,29.37,NNE,17,0.0,8.0,39,0.00,,---,0.00,VWS V14.00,2013-03-04 03:33:00,
2013-03-03 20:38:00,48.2,26.2,29.37,North,9,4.0,24.0,42,0.00,,---,0.00,VWS V14.00,2013-03-04 03:38:00,
2013-03-03 20:43:00,47.7,25.2,29.37,NNE,16,4.0,24.0,41,0.00,,---,0.00,VWS V14.00,2013-03-04 03:43:00,
2013-03-03 20:48:00,47.7,25.2,29.37,NNE,24,7.0,11.0,41,0.00,,---,0.00,VWS V14.00,2013-03-04 03:48:00,
2013-03-03 20:54:00,47.2,25.9,29.37,NNE,32,0.0,11.0,43,0.00,,---,0.00,VWS V14.00,2013-03-04 03:54:00,
2013-03-03 20:59:00,46.3,26.1,29.37,North,355,2.0,7.0,45,0.00,,---,0.00,VWS V14.00,2013-03-04 03:59:00,
2013-03-03 21:04:00,45.8,26.2,29.37,North,5,4.0,7.0,46,0.00,,---,0.00,VWS V14.00,2013-03-04 04:04:00,
2013-03-03 21:09:00,46.0,25.9,29.38,North,355,6.0,6.0,45,0.00,,---,0.00,VWS V14.00,2013-03-04 04:09:00,
2013-03-03 21:14:00,46.9,26.1,29.38,SE,138,8.0,10.0,44,0.00,,---,0.00,VWS V14.00,2013-03-04 04:14:00,
2013-03-03 21:19:00,47.9,26.5,29.37,ESE,113,0.0,12.0,43,0.00,,---,0.00,VWS V14.00,2013-03-04 04:19:00,
2013-03-03 21:24:00,48.1,26.7,29.37,ENE,57,7.0,12.0,43,0.00,,---,0.00,VWS V14.00,2013-03-04 04:24:00,
2013-03-03 21:29:00,48.2,27.3,29.37,SSW,201,14.0,21.0,44,0.00,,---,0.00,VWS V14.00,2013-03-04 04:29:00,
2013-03-03 21:34:00,48.3,26.9,29.36,South,175,4.0,21.0,43,0.00,,---,0.00,VWS V14.00,2013-03-04 04:34:00,
2013-03-03 21:39:00,48.3,26.3,29.36,WNW,282,3.0,12.0,42,0.00,,---,0.00,VWS V14.00,2013-03-04 04:39:00,
2013-03-03 21:44:00,48.2,26.2,29.37,West,277,0.0,12.0,42,0.00,,---,0.00,VWS V14.00,2013-03-04 04:44:00,
2013-03-03 21:49:00,48.5,25.9,29.37,WNW,298,0.0,13.0,41,0.00,,---,0.00,VWS V14.00,2013-03-04 04:49:00,
2013-03-03 21:55:00,47.9,25.9,29.37,NE,37,4.0,13.0,42,0.00,,---,0.00,VWS V14.00,2013-03-04 04:55:00,
2013-03-03 22:00:00,46.3,26.1,29.37,NW,309,3.0,8.0,45,0.00,,---,0.00,VWS V14.00,2013-03-04 05:00:00,
2013-03-03 22:01:00,46.1,26.5,29.37,NW,310,3.0,8.0,46,0.00,,---,0.00,VWS V14.00,2013-03-04 05:01:00,
2013-03-03 22:02:00,46.0,26.4,29.37,North,355,6.0,8.0,46,0.00,,---,0.00,VWS V14.00,2013-03-04 05:02:00,
2013-03-03 22:07:00,44.6,26.6,29.37,North,355,8.0,10.0,49,0.00,,---,0.00,VWS V14.00,2013-03-04 05:07:00,
2013-03-03 22:12:00,43.7,27.2,29.37,NNW,334,8.0,10.0,52,0.00,,---,0.00,VWS V14.00,2013-03-04 05:12:00,
2013-03-03 22:17:00,43.8,27.3,29.37,NNW,343,4.0,4.0,52,0.00,,---,0.00,VWS V14.00,2013-03-04 05:17:00,
2013-03-03 22:22:00,43.7,27.2,29.37,North,5,3.0,6.0,52,0.00,,---,0.00,VWS V14.00,2013-03-04 05:22:00,
2013-03-03 22:27:00,43.7,27.2,29.37,North,355,6.0,6.0,52,0.00,,---,0.00,VWS V14.00,2013-03-04 05:27:00,
2013-03-03 22:32:00,43.8,26.9,29.37,NNE,16,3.0,7.0,51,0.00,,---,0.00,VWS V14.00,2013-03-04 05:32:00,
2013-03-03 22:37:00,44.2,26.8,29.37,NNE,15,1.0,4.0,50,0.00,,---,0.00,VWS V14.00,2013-03-04 05:37:00,
2013-03-03 22:42:00,43.5,27.1,29.37,NNW,327,6.0,8.0,52,0.00,,---,0.00,VWS V14.00,2013-03-04 05:42:00,
2013-03-03 22:47:00,44.2,26.8,29.37,North,9,5.0,7.0,50,0.00,,---,0.00,VWS V14.00,2013-03-04 05:47:00,
2013-03-03 22:52:00,44.7,26.7,29.37,NNE,19,7.0,10.0,49,0.00,,---,0.00,VWS V14.00,2013-03-04 05:52:00,
2013-03-03 22:57:00,43.8,26.4,29.38,NW,319,8.0,9.0,50,0.00,,---,0.00,VWS V14.00,2013-03-04 05:57:00,
2013-03-03 23:03:00,44.8,26.8,29.37,North,5,11.0,12.0,49,0.00,,---,0.00,VWS V14.00,2013-03-04 06:03:00,
2013-03-03 23:08:00,45.0,27.0,29.37,NNE,23,0.0,9.0,49,0.00,,---,0.00,VWS V14.00,2013-03-04 06:08:00,
2013-03-03 23:13:00,44.2,26.8,29.37,WSW,256,3.0,9.0,50,0.00,,---,0.00,VWS V14.00,2013-03-04 06:13:00,
2013-03-03 23:18:00,44.1,26.7,29.36,WSW,253,0.0,2.0,50,0.00,,---,0.00,VWS V14.00,2013-03-04 06:18:00,
2013-03-03 23:23:00,43.3,26.9,29.37,SSW,194,8.0,12.0,52,0.00,,---,0.00,VWS V14.00,2013-03-04 06:23:00,
2013-03-03 23:28:00,42.3,26.9,29.37,East,81,4.0,6.0,54,0.00,,---,0.00,VWS V14.00,2013-03-04 06:28:00,
2013-03-03 23:33:00,43.2,26.8,29.36,South,190,7.0,10.0,52,0.00,,---,0.00,VWS V14.00,2013-03-04 06:33:00,
2013-03-03 23:38:00,43.7,26.8,29.37,SE,140,2.0,7.0,51,0.00,,---,0.00,VWS V14.00,2013-03-04 06:38:00,
2013-03-03 23:43:00,43.7,26.8,29.37,NNW,332,5.0,7.0,51,0.00,,---,0.00,VWS V14.00,2013-03-04 06:43:00,
2013-03-03 23:48:00,43.6,26.7,29.37,NE,48,0.0,5.0,51,0.00,,---,0.00,VWS V14.00,2013-03-04 06:48:00,
2013-03-03 23:53:00,43.5,26.6,29.37,East,100,0.0,5.0,51,0.00,,---,0.00,VWS V14.00,2013-03-04 06:53:00,
2013-03-03 23:58:00,43.4,27.4,29.38,WNW,286,5.0,6.0,53,0.00,,---,0.00,VWS V14.00,2013-03-04 06:58:00,